createdAt,value
2023-04-22T00:00:35.244Z,60.99
2023-04-22T00:01:35.243Z,60.92
2023-04-22T00:02:35.315Z,61.02
2023-04-22T00:03:35.471Z,60.71
2023-04-22T00:04:35.439Z,60.69
2023-04-22T00:05:35.341Z,60.78
2023-04-22T00:06:35.177Z,60.89
2023-04-22T00:07:35.170Z,60.71
2023-04-22T00:08:35.203Z,60.82
2023-04-22T00:09:35.199Z,61.02
2023-04-22T00:10:35.172Z,60.92
2023-04-22T00:11:35.134Z,60.92
2023-04-22T00:12:35.122Z,60.92
2023-04-22T00:13:35.107Z,61.43
2023-04-22T00:14:35.111Z,60.92
2023-04-22T00:15:35.098Z,61.02
2023-04-22T00:16:35.126Z,60.94
2023-04-22T00:17:35.079Z,61.02
2023-04-22T00:18:35.054Z,61.12
2023-04-22T00:19:35.209Z,60.92
2023-04-22T00:20:35.033Z,60.92
2023-04-22T00:21:35.022Z,60.94
2023-04-22T00:22:35.010Z,60.94
2023-04-22T00:23:35.053Z,60.71
2023-04-22T00:24:34.987Z,61.12
2023-04-22T00:25:42.858Z,60.92
2023-04-22T00:26:34.967Z,60.82
2023-04-22T00:27:34.955Z,61.12
2023-04-22T00:28:34.957Z,60.71
2023-04-22T00:29:34.958Z,61.02
2023-04-22T00:30:34.924Z,61.02
2023-04-22T00:31:34.971Z,60.82
2023-04-22T00:32:34.924Z,60.82
2023-04-22T00:33:34.898Z,61.53
2023-04-22T00:34:34.880Z,60.82
2023-04-22T00:35:34.872Z,60.61
2023-04-22T00:36:34.860Z,60.82
2023-04-22T00:37:34.861Z,60.85
2023-04-22T00:38:34.876Z,60.61
2023-04-22T00:39:34.834Z,60.82
2023-04-22T00:40:34.823Z,60.92
2023-04-22T00:41:34.823Z,61.02
2023-04-22T00:42:34.792Z,60.71
2023-04-22T00:43:34.817Z,60.82
2023-04-22T00:44:34.783Z,61.05
2023-04-22T00:45:34.805Z,61.66
2023-04-22T00:46:34.794Z,61.46
2023-04-22T00:47:34.771Z,61.15
2023-04-22T00:48:34.744Z,60.82
2023-04-22T00:49:34.708Z,60.94
2023-04-22T00:50:34.736Z,61.05
2023-04-22T00:51:34.692Z,61.66
2023-04-22T00:52:34.685Z,61.66
2023-04-22T00:53:34.688Z,61.73
2023-04-22T00:54:34.658Z,61.35
2023-04-22T00:55:34.646Z,61.35
2023-04-22T00:56:34.642Z,61.25
2023-04-22T00:57:34.649Z,61.35
2023-04-22T00:58:34.627Z,61.46
2023-04-22T00:59:34.822Z,61.35
2023-04-22T01:00:34.609Z,61.28
2023-04-22T01:01:34.921Z,61.35
2023-04-22T01:02:34.725Z,61.46
2023-04-22T01:03:34.682Z,61.25
2023-04-22T01:04:34.559Z,61.25
2023-04-22T01:05:34.554Z,61.38
2023-04-22T01:06:34.535Z,61.08
2023-04-22T01:07:34.517Z,61.08
2023-04-22T01:08:34.510Z,61.49
2023-04-22T01:09:34.502Z,61.38
2023-04-22T01:10:34.492Z,61.38
2023-04-22T01:11:34.485Z,61.49
2023-04-22T01:12:34.473Z,61.99
2023-04-22T01:13:34.467Z,62.95
2023-04-22T01:14:34.469Z,62.84
2023-04-22T01:15:34.439Z,62.84
2023-04-22T01:16:34.444Z,62.95
2023-04-22T01:17:34.445Z,62.98
2023-04-22T01:18:34.429Z,62.84
2023-04-22T01:19:34.386Z,62.63
2023-04-22T01:20:34.383Z,63.56
2023-04-22T01:21:34.376Z,63.56
2023-04-22T01:22:34.355Z,63.45
2023-04-22T01:23:34.479Z,63.39
2023-04-22T01:24:34.349Z,63.07
2023-04-22T01:25:34.320Z,63.07
2023-04-22T01:26:34.317Z,63.79
2023-04-22T01:27:34.296Z,63.89
2023-04-22T01:28:34.291Z,63.82
2023-04-22T01:29:34.319Z,63.92
2023-04-22T01:30:34.270Z,64.03
2023-04-22T01:31:34.286Z,64.23
2023-04-22T01:32:34.257Z,63.79
2023-04-22T01:33:34.237Z,63.82
2023-04-22T01:34:34.264Z,63.28
2023-04-22T01:35:34.217Z,63.62
2023-04-22T01:36:34.220Z,63.82
2023-04-22T01:37:34.190Z,63.79
2023-04-22T01:38:34.186Z,63.18
2023-04-22T01:39:34.181Z,62.77
2023-04-22T01:40:34.161Z,62.77
2023-04-22T01:41:34.148Z,62.98
2023-04-22T01:42:34.137Z,62.87
2023-04-22T01:43:34.140Z,62.87
2023-04-22T01:44:34.131Z,63.28
2023-04-22T01:45:34.212Z,63.69
2023-04-22T01:46:34.229Z,63.28
2023-04-22T01:47:34.091Z,63.66
2023-04-22T01:48:34.085Z,62.57
2023-04-22T01:49:34.063Z,62.87
2023-04-22T01:50:34.051Z,62.84
2023-04-22T01:51:34.037Z,63.48
2023-04-22T01:52:34.029Z,63.39
2023-04-22T01:53:34.035Z,63.28
2023-04-22T01:54:34.024Z,63.00
2023-04-22T01:55:34.003Z,63.10
2023-04-22T01:56:33.987Z,63.82
2023-04-22T01:57:33.974Z,63.82
2023-04-22T01:58:33.973Z,63.82
2023-04-22T01:59:33.960Z,63.92
2023-04-22T02:00:33.939Z,64.23
2023-04-22T02:01:33.999Z,64.03
2023-04-22T02:02:34.032Z,63.72
2023-04-22T02:03:33.968Z,63.82
2023-04-22T02:04:33.928Z,64.23
2023-04-22T02:05:33.900Z,64.23
2023-04-22T02:06:33.875Z,64.03
2023-04-22T02:07:33.861Z,64.33
2023-04-22T02:08:33.869Z,64.13
2023-04-22T02:09:33.862Z,64.57
2023-04-22T02:10:33.832Z,64.26
2023-04-22T02:11:33.820Z,64.13
2023-04-22T02:12:33.808Z,64.06
2023-04-22T02:13:33.799Z,64.26
2023-04-22T02:14:33.812Z,63.95
2023-04-22T02:15:33.815Z,64.67
2023-04-22T02:16:33.780Z,64.47
2023-04-22T02:17:33.770Z,64.47
2023-04-22T02:18:33.742Z,65.21
2023-04-22T02:19:33.778Z,65.21
2023-04-22T02:20:33.757Z,65.31
2023-04-22T02:21:33.714Z,65.62
2023-04-22T02:22:33.694Z,65.52
2023-04-22T02:23:33.683Z,65.52
2023-04-22T02:24:33.698Z,65.62
2023-04-22T02:25:33.666Z,65.21
2023-04-22T02:26:33.657Z,65.21
2023-04-22T02:27:33.642Z,65.21
2023-04-22T02:28:33.631Z,65.31
2023-04-22T02:29:33.626Z,65.11
2023-04-22T02:30:33.619Z,65.21
2023-04-22T02:31:33.621Z,65.65
2023-04-22T02:32:33.604Z,65.65
2023-04-22T02:33:33.637Z,65.72
2023-04-22T02:34:33.566Z,65.62
2023-04-22T02:35:33.551Z,65.62
2023-04-22T02:36:33.544Z,65.52
2023-04-22T02:37:33.529Z,65.52
2023-04-22T02:38:33.560Z,65.21
2023-04-22T02:39:33.513Z,65.42
2023-04-22T02:40:33.502Z,65.42
2023-04-22T02:41:33.497Z,65.52
2023-04-22T02:42:33.477Z,65.72
2023-04-22T02:43:33.481Z,65.01
2023-04-22T02:44:33.459Z,65.21
2023-04-22T02:45:33.444Z,65.31
2023-04-22T02:46:33.477Z,65.52
2023-04-22T02:47:33.459Z,65.31
2023-04-22T02:48:33.422Z,65.45
2023-04-22T02:49:33.417Z,65.45
2023-04-22T02:50:33.387Z,65.55
2023-04-22T02:51:33.383Z,65.42
2023-04-22T02:52:33.372Z,65.62
2023-04-22T02:53:33.451Z,65.62
2023-04-22T02:54:33.346Z,65.55
2023-04-22T02:55:33.340Z,65.21
2023-04-22T02:56:33.323Z,65.65
2023-04-22T02:57:33.311Z,65.52
2023-04-22T02:58:33.322Z,65.52
2023-04-22T02:59:33.296Z,65.52
2023-04-22T03:00:33.316Z,65.21
2023-04-22T03:01:33.360Z,65.31
2023-04-22T03:02:33.444Z,65.11
2023-04-22T03:03:33.366Z,65.31
2023-04-22T03:04:33.272Z,65.31
2023-04-22T03:05:33.249Z,65.01
2023-04-22T03:06:33.216Z,65.01
2023-04-22T03:07:33.203Z,65.11
2023-04-22T03:08:33.221Z,65.21
2023-04-22T03:09:33.191Z,65.21
2023-04-22T03:10:33.177Z,65.11
2023-04-22T03:11:33.158Z,65.01
2023-04-22T03:12:33.154Z,64.80
2023-04-22T03:13:33.166Z,65.31
2023-04-22T03:14:33.127Z,65.11
2023-04-22T03:15:33.120Z,65.31
2023-04-22T03:16:33.132Z,65.34
2023-04-22T03:17:33.126Z,65.24
2023-04-22T03:18:33.108Z,65.21
2023-04-22T03:19:33.074Z,65.24
2023-04-22T03:20:33.069Z,65.21
2023-04-22T03:21:33.092Z,65.31
2023-04-22T03:22:33.050Z,65.21
2023-04-22T03:23:33.046Z,65.24
2023-04-22T03:24:33.021Z,65.34
2023-04-22T03:25:33.008Z,65.55
2023-04-22T03:26:33.000Z,65.78
2023-04-22T03:27:33.010Z,66.40
2023-04-22T03:28:32.976Z,66.60
2023-04-22T03:29:32.969Z,66.43
2023-04-22T03:30:32.964Z,66.63
2023-04-22T03:31:32.979Z,67.35
2023-04-22T03:32:32.969Z,67.14
2023-04-22T03:33:32.938Z,67.05
2023-04-22T03:34:33.622Z,66.94
2023-04-22T03:35:32.973Z,66.94
2023-04-22T03:36:32.891Z,67.25
2023-04-22T03:37:32.909Z,66.84
2023-04-22T03:38:32.874Z,66.53
2023-04-22T03:39:32.856Z,66.53
2023-04-22T03:40:32.846Z,66.74
2023-04-22T03:41:32.837Z,66.30
2023-04-22T03:42:32.861Z,66.43
2023-04-22T03:43:32.813Z,66.33
2023-04-22T03:44:32.809Z,66.33
2023-04-22T03:45:32.989Z,66.40
2023-04-22T03:46:32.863Z,66.19
2023-04-22T03:47:32.827Z,66.60
2023-04-22T03:48:32.762Z,66.33
2023-04-22T03:49:32.763Z,66.43
2023-04-22T03:50:32.751Z,66.94
2023-04-22T03:51:32.727Z,67.25
2023-04-22T03:52:32.739Z,67.14
2023-04-22T03:53:32.726Z,67.25
2023-04-22T03:54:32.697Z,66.43
2023-04-22T03:55:32.684Z,66.74
2023-04-22T03:56:32.680Z,66.43
2023-04-22T03:57:32.700Z,66.43
2023-04-22T03:58:32.661Z,66.22
2023-04-22T03:59:32.640Z,66.22
2023-04-22T04:00:32.658Z,66.71
2023-04-22T04:01:32.642Z,66.43
2023-04-22T04:02:32.761Z,66.30
2023-04-22T04:03:33.000Z,66.19
2023-04-22T04:04:33.166Z,66.19
2023-04-22T04:05:32.660Z,66.40
2023-04-22T04:06:32.575Z,65.68
2023-04-22T04:07:32.618Z,65.78
2023-04-22T04:08:32.552Z,65.55
2023-04-22T04:09:32.564Z,65.65
2023-04-22T04:10:32.528Z,65.34
2023-04-22T04:11:32.512Z,65.65
2023-04-22T04:12:32.518Z,65.24
2023-04-22T04:13:32.651Z,65.55
2023-04-22T04:14:32.483Z,65.86
2023-04-22T04:15:32.527Z,65.14
2023-04-22T04:16:32.532Z,65.24
2023-04-22T04:17:32.504Z,65.01
2023-04-22T04:18:32.438Z,65.01
2023-04-22T04:19:32.428Z,65.04
2023-04-22T04:20:32.414Z,65.11
2023-04-22T04:21:32.401Z,65.01
2023-04-22T04:22:32.435Z,64.77
2023-04-22T04:23:32.380Z,64.67
2023-04-22T04:24:32.401Z,64.57
2023-04-22T04:25:32.386Z,64.26
2023-04-22T04:26:32.355Z,64.26
2023-04-22T04:27:32.353Z,64.26
2023-04-22T04:28:32.348Z,64.16
2023-04-22T04:29:32.312Z,64.26
2023-04-22T04:30:33.648Z,64.06
2023-04-22T04:31:32.310Z,64.16
2023-04-22T04:32:32.350Z,64.36
2023-04-22T04:33:32.272Z,64.23
2023-04-22T04:34:32.269Z,64.33
2023-04-22T04:35:32.250Z,64.57
2023-04-22T04:36:32.247Z,64.43
2023-04-22T04:37:32.248Z,63.62
2023-04-22T04:38:32.224Z,63.82
2023-04-22T04:39:32.206Z,63.92
2023-04-22T04:40:32.193Z,63.89
2023-04-22T04:41:32.235Z,63.59
2023-04-22T04:42:32.220Z,63.39
2023-04-22T04:43:32.170Z,63.28
2023-04-22T04:44:32.155Z,63.45
2023-04-22T04:45:32.146Z,62.95
2023-04-22T04:46:32.155Z,62.95
2023-04-22T04:47:32.193Z,62.95
2023-04-22T04:48:32.105Z,62.84
2023-04-22T04:49:32.097Z,62.74
2023-04-22T04:50:32.091Z,62.95
2023-04-22T04:51:32.073Z,62.71
2023-04-22T04:52:32.089Z,62.81
2023-04-22T04:53:32.065Z,61.99
2023-04-22T04:54:32.054Z,62.30
2023-04-22T04:55:32.043Z,61.90
2023-04-22T04:56:32.019Z,62.17
2023-04-22T04:57:32.045Z,61.66
2023-04-22T04:58:31.996Z,62.17
2023-04-22T04:59:31.985Z,61.22
2023-04-22T05:00:31.975Z,61.02
2023-04-22T05:01:32.026Z,61.53
2023-04-22T05:02:32.089Z,61.80
2023-04-22T05:03:32.152Z,61.91
2023-04-22T05:04:32.143Z,61.68
2023-04-22T05:05:31.929Z,61.19
2023-04-22T05:06:31.916Z,60.89
2023-04-22T05:07:31.943Z,61.60
2023-04-22T05:08:31.896Z,61.68
2023-04-22T05:09:31.884Z,61.16
2023-04-22T05:10:31.872Z,61.57
2023-04-22T05:11:31.862Z,61.16
2023-04-22T05:12:31.859Z,61.27
2023-04-22T05:13:31.866Z,61.37
2023-04-22T05:14:31.826Z,61.54
2023-04-22T05:15:31.822Z,60.76
2023-04-22T05:16:31.872Z,60.93
2023-04-22T05:17:31.850Z,60.73
2023-04-22T05:18:31.784Z,61.68
2023-04-22T05:19:31.773Z,61.34
2023-04-22T05:20:33.798Z,60.83
2023-04-22T05:21:31.764Z,60.09
2023-04-22T05:22:31.774Z,59.48
2023-04-22T05:23:31.744Z,59.96
2023-04-22T05:24:31.729Z,59.05
2023-04-22T05:25:31.711Z,59.45
2023-04-22T05:26:31.698Z,59.96
2023-04-22T05:27:31.694Z,59.55
2023-04-22T05:28:31.675Z,59.22
2023-04-22T05:29:31.691Z,59.42
2023-04-22T05:30:31.656Z,58.78
2023-04-22T05:31:31.693Z,58.69
2023-04-22T05:32:31.809Z,58.69
2023-04-22T05:33:31.643Z,58.56
2023-04-22T05:34:31.609Z,57.84
2023-04-22T05:35:31.606Z,57.81
2023-04-22T05:36:31.766Z,57.21
2023-04-22T05:37:31.612Z,57.18
2023-04-22T05:38:31.567Z,57.41
2023-04-22T05:39:31.558Z,56.77
2023-04-22T05:40:31.544Z,56.74
2023-04-22T05:41:31.538Z,56.74
2023-04-22T05:42:31.547Z,56.24
2023-04-22T05:43:31.518Z,56.74
2023-04-22T05:44:31.500Z,56.24
2023-04-22T05:45:31.562Z,55.71
2023-04-22T05:46:31.574Z,55.50
2023-04-22T05:47:31.491Z,55.71
2023-04-22T05:48:31.460Z,55.40
2023-04-22T05:49:31.448Z,54.86
2023-04-22T05:50:31.440Z,55.15
2023-04-22T05:51:31.422Z,54.61
2023-04-22T05:52:31.468Z,54.41
2023-04-22T05:53:31.411Z,54.00
2023-04-22T05:54:31.397Z,54.11
2023-04-22T05:55:31.381Z,54.21
2023-04-22T05:56:31.371Z,54.84
2023-04-22T05:57:31.377Z,54.33
2023-04-22T05:58:31.351Z,54.11
2023-04-22T05:59:31.339Z,54.31
2023-04-22T06:00:31.324Z,54.21
2023-04-22T06:01:31.335Z,53.50
2023-04-22T06:02:31.541Z,53.80
2023-04-22T06:03:31.515Z,54.31
2023-04-22T06:04:34.506Z,53.78
2023-04-22T06:05:32.320Z,54.41
2023-04-22T06:06:31.286Z,54.61
2023-04-22T06:07:31.272Z,54.41
2023-04-22T06:08:31.246Z,54.28
2023-04-22T06:09:31.234Z,53.78
2023-04-22T06:10:31.222Z,52.74
2023-04-22T06:11:31.240Z,52.33
2023-04-22T06:12:31.223Z,53.65
2023-04-22T06:13:31.195Z,52.13
2023-04-22T06:14:31.178Z,50.43
2023-04-22T06:15:31.265Z,52.15
2023-04-22T06:16:31.167Z,52.26
2023-04-22T06:17:31.170Z,52.15
2023-04-22T06:18:31.133Z,52.94
2023-04-22T06:19:31.121Z,53.25
2023-04-22T06:20:31.107Z,52.01
2023-04-22T06:21:31.098Z,52.01
2023-04-22T06:22:31.117Z,51.98
2023-04-22T06:23:31.084Z,51.05
2023-04-22T06:24:31.073Z,50.62
2023-04-22T06:25:31.944Z,50.74
2023-04-22T06:26:31.047Z,49.43
2023-04-22T06:27:31.044Z,49.43
2023-04-22T06:28:31.021Z,50.14
2023-04-22T06:29:31.016Z,50.04
2023-04-22T06:30:30.997Z,49.96
2023-04-22T06:31:31.029Z,50.67
2023-04-22T06:32:31.156Z,50.67
2023-04-22T06:33:30.986Z,50.12
2023-04-22T06:34:30.957Z,49.28
2023-04-22T06:35:30.960Z,49.58
2023-04-22T06:36:31.001Z,49.01
2023-04-22T06:37:30.946Z,50.19
2023-04-22T06:38:30.922Z,49.48
2023-04-22T06:39:30.913Z,49.64
2023-04-22T06:40:30.927Z,47.90
2023-04-22T06:41:30.884Z,47.80
2023-04-22T06:42:30.906Z,48.13
2023-04-22T06:43:30.865Z,47.27
2023-04-22T06:44:30.853Z,47.38
2023-04-22T06:45:30.841Z,47.98
2023-04-22T06:46:30.877Z,46.95
2023-04-22T06:47:30.830Z,47.23
2023-04-22T06:48:30.827Z,46.12
2023-04-22T06:49:30.814Z,46.83
2023-04-22T06:50:30.797Z,45.39
2023-04-22T06:51:30.807Z,46.38
2023-04-22T06:52:30.768Z,44.95
2023-04-22T06:53:30.760Z,45.43
2023-04-22T06:54:30.749Z,45.43
2023-04-22T06:55:30.732Z,45.41
2023-04-22T06:56:30.736Z,43.50
2023-04-22T06:57:30.723Z,43.80
2023-04-22T06:58:30.699Z,43.76
2023-04-22T06:59:30.688Z,44.04
2023-04-22T07:00:30.675Z,43.82
2023-04-22T07:01:30.798Z,43.72
2023-04-22T07:02:30.746Z,43.10
2023-04-22T07:03:30.709Z,43.58
2023-04-22T07:04:30.654Z,43.05
2023-04-22T07:05:30.641Z,43.13
2023-04-22T07:06:30.625Z,42.41
2023-04-22T07:07:30.602Z,41.03
2023-04-22T07:08:30.590Z,42.18
2023-04-22T07:09:30.587Z,43.18
2023-04-22T07:10:30.571Z,41.88
2023-04-22T07:11:30.609Z,41.39
2023-04-22T07:12:30.551Z,42.18
2023-04-22T07:13:30.538Z,41.43
2023-04-22T07:14:30.528Z,40.22
2023-04-22T07:15:30.516Z,41.02
2023-04-22T07:16:30.574Z,41.19
2023-04-22T07:17:30.507Z,41.47
2023-04-22T07:18:30.478Z,40.99
2023-04-22T07:19:32.503Z,41.27
2023-04-22T07:20:30.462Z,41.38
2023-04-22T07:21:30.501Z,39.58
2023-04-22T07:22:30.447Z,40.28
2023-04-22T07:23:30.541Z,39.76
2023-04-22T07:24:30.420Z,38.94
2023-04-22T07:25:30.409Z,38.92
2023-04-22T07:26:30.412Z,39.40
2023-04-22T07:27:30.414Z,39.30
2023-04-22T07:28:30.380Z,38.90
2023-04-22T07:29:30.368Z,39.52
2023-04-22T07:30:30.373Z,40.53
2023-04-22T07:31:30.375Z,38.24
2023-04-22T07:32:30.355Z,40.42
2023-04-22T07:33:30.331Z,39.22
2023-04-22T07:34:30.310Z,39.62
2023-04-22T07:35:30.371Z,39.98
2023-04-22T07:36:30.546Z,37.87
2023-04-22T07:37:30.324Z,37.15
2023-04-22T07:38:30.274Z,37.71
2023-04-22T07:39:30.258Z,35.92
2023-04-22T07:40:30.250Z,35.44
2023-04-22T07:41:30.275Z,35.84
2023-04-22T07:42:30.226Z,35.94
2023-04-22T07:43:30.220Z,37.34
2023-04-22T07:44:30.227Z,37.53
2023-04-22T07:45:30.271Z,36.35
2023-04-22T07:46:30.199Z,35.56
2023-04-22T07:47:30.213Z,35.94
2023-04-22T07:48:30.179Z,37.41
2023-04-22T07:49:30.162Z,37.32
2023-04-22T07:50:30.168Z,36.29
2023-04-22T07:51:30.139Z,36.36
2023-04-22T07:52:30.120Z,35.99
2023-04-22T07:53:30.154Z,36.29
2023-04-22T07:54:30.098Z,37.20
2023-04-22T07:55:30.091Z,37.30
2023-04-22T07:56:30.090Z,36.12
2023-04-22T07:57:30.070Z,37.35
2023-04-22T07:58:30.057Z,38.07
2023-04-22T07:59:30.049Z,37.97
2023-04-22T08:00:30.081Z,37.45
2023-04-22T08:01:30.084Z,37.45
2023-04-22T08:02:30.140Z,37.53
2023-04-22T08:03:30.141Z,37.51
2023-04-22T08:04:30.176Z,36.52
2023-04-22T08:05:29.993Z,34.91
2023-04-22T08:06:30.025Z,35.21
2023-04-22T08:07:33.050Z,35.61
2023-04-22T08:08:29.970Z,34.30
2023-04-22T08:09:29.973Z,35.61
2023-04-22T08:10:29.935Z,36.54
2023-04-22T08:11:29.943Z,35.34
2023-04-22T08:12:29.916Z,35.03
2023-04-22T08:13:29.908Z,35.34
2023-04-22T08:14:29.921Z,35.72
2023-04-22T08:15:29.893Z,35.03
2023-04-22T08:16:29.933Z,35.61
2023-04-22T08:17:29.921Z,35.39
2023-04-22T08:18:29.855Z,35.11
2023-04-22T08:19:29.846Z,35.31
2023-04-22T08:20:29.835Z,35.59
2023-04-22T08:21:29.844Z,34.10
2023-04-22T08:22:29.822Z,35.39
2023-04-22T08:23:29.809Z,36.07
2023-04-22T08:24:29.795Z,34.78
2023-04-22T08:25:29.810Z,34.86
2023-04-22T08:26:29.795Z,34.15
2023-04-22T08:27:29.766Z,34.12
2023-04-22T08:28:29.758Z,33.92
2023-04-22T08:29:29.749Z,34.22
2023-04-22T08:30:29.733Z,33.94
2023-04-22T08:31:29.777Z,35.14
2023-04-22T08:32:29.798Z,34.84
2023-04-22T08:33:29.707Z,34.36
2023-04-22T08:34:29.694Z,35.08
2023-04-22T08:35:29.686Z,34.86
2023-04-22T08:36:29.690Z,34.34
2023-04-22T08:37:29.685Z,34.45
2023-04-22T08:38:29.652Z,35.74
2023-04-22T08:39:29.669Z,34.73
2023-04-22T08:40:29.626Z,34.92
2023-04-22T08:41:29.651Z,35.01
2023-04-22T08:42:29.619Z,34.40
2023-04-22T08:43:29.601Z,34.22
2023-04-22T08:44:29.598Z,36.40
2023-04-22T08:45:29.578Z,35.41
2023-04-22T08:46:29.608Z,34.91
2023-04-22T08:47:29.579Z,34.00
2023-04-22T08:48:29.556Z,33.19
2023-04-22T08:49:29.542Z,33.59
2023-04-22T08:50:29.523Z,35.47
2023-04-22T08:51:29.528Z,34.28
2023-04-22T08:52:29.505Z,34.27
2023-04-22T08:53:29.503Z,34.27
2023-04-22T08:54:29.506Z,34.15
2023-04-22T08:55:29.480Z,33.85
2023-04-22T08:56:29.481Z,34.05
2023-04-22T08:57:29.473Z,32.37
2023-04-22T08:58:29.446Z,32.98
2023-04-22T08:59:29.435Z,34.46
2023-04-22T09:00:29.426Z,33.17
2023-04-22T09:01:29.539Z,33.06
2023-04-22T09:02:29.449Z,32.67
2023-04-22T09:03:29.520Z,32.55
2023-04-22T09:04:29.457Z,32.43
2023-04-22T09:05:29.383Z,32.52
2023-04-22T09:06:29.389Z,31.93
2023-04-22T09:07:29.358Z,32.24
2023-04-22T09:08:29.356Z,31.84
2023-04-22T09:09:29.328Z,33.16
2023-04-22T09:10:29.328Z,33.17
2023-04-22T09:11:29.324Z,33.67
2023-04-22T09:12:29.311Z,34.38
2023-04-22T09:13:29.321Z,34.18
2023-04-22T09:14:29.317Z,34.50
2023-04-22T09:15:29.269Z,32.70
2023-04-22T09:16:29.298Z,33.77
2023-04-22T09:17:29.273Z,34.05
2023-04-22T09:18:29.245Z,33.84
2023-04-22T09:19:29.228Z,32.83
2023-04-22T09:20:29.236Z,32.83
2023-04-22T09:21:29.209Z,33.62
2023-04-22T09:22:29.199Z,33.84
2023-04-22T09:23:29.194Z,34.53
2023-04-22T09:24:29.180Z,32.83
2023-04-22T09:25:29.201Z,31.62
2023-04-22T09:26:29.155Z,31.62
2023-04-22T09:27:29.145Z,31.73
2023-04-22T09:28:29.137Z,31.74
2023-04-22T09:29:29.139Z,32.53
2023-04-22T09:30:29.139Z,32.80
2023-04-22T09:31:29.137Z,31.91
2023-04-22T09:32:29.131Z,32.64
2023-04-22T09:33:29.127Z,33.95
2023-04-22T09:34:29.076Z,34.06
2023-04-22T09:35:29.091Z,34.06
2023-04-22T09:36:29.057Z,33.95
2023-04-22T09:37:36.023Z,33.03
2023-04-22T09:38:30.030Z,32.42
2023-04-22T09:39:29.034Z,32.21
2023-04-22T09:40:29.012Z,33.01
2023-04-22T09:41:29.026Z,32.24
2023-04-22T09:42:28.993Z,32.14
2023-04-22T09:43:28.980Z,32.14
2023-04-22T09:44:28.972Z,34.63
2023-04-22T09:45:28.980Z,33.84
2023-04-22T09:46:29.145Z,34.03
2023-04-22T09:47:28.964Z,33.72
2023-04-22T09:48:28.934Z,32.43
2023-04-22T09:49:28.935Z,32.73
2023-04-22T09:50:28.944Z,32.55
2023-04-22T09:51:28.918Z,32.37
2023-04-22T09:52:28.895Z,33.14
2023-04-22T09:53:28.876Z,32.34
2023-04-22T09:54:28.869Z,31.91
2023-04-22T09:55:28.877Z,32.12
2023-04-22T09:56:28.906Z,32.45
2023-04-22T09:57:28.837Z,32.67
2023-04-22T09:58:28.832Z,31.96
2023-04-22T09:59:28.842Z,31.85
2023-04-22T10:00:28.824Z,33.13
2023-04-22T10:01:28.855Z,33.03
2023-04-22T10:02:28.924Z,31.96
2023-04-22T10:03:28.789Z,33.07
2023-04-22T10:04:28.844Z,32.68
2023-04-22T10:05:28.809Z,34.28
2023-04-22T10:06:28.752Z,34.17
2023-04-22T10:07:28.765Z,32.88
2023-04-22T10:08:28.725Z,32.98
2023-04-22T10:09:28.714Z,33.56
2023-04-22T10:10:28.730Z,33.85
2023-04-22T10:11:28.696Z,32.86
2023-04-22T10:12:35.269Z,32.45
2023-04-22T10:13:29.676Z,32.43
2023-04-22T10:14:28.703Z,31.41
2023-04-22T10:15:28.672Z,31.01
2023-04-22T10:16:28.675Z,31.60
2023-04-22T10:17:28.691Z,31.53
2023-04-22T10:18:28.633Z,32.24
2023-04-22T10:19:28.611Z,32.52
2023-04-22T10:20:28.615Z,33.51
2023-04-22T10:21:28.592Z,32.03
2023-04-22T10:22:28.591Z,31.23
2023-04-22T10:23:28.622Z,30.76
2023-04-22T10:24:28.562Z,31.54
2023-04-22T10:25:28.566Z,32.65
2023-04-22T10:26:28.542Z,32.76
2023-04-22T10:27:28.538Z,33.28
2023-04-22T10:28:28.520Z,32.50
2023-04-22T10:29:28.513Z,32.71
2023-04-22T10:30:28.512Z,33.94
2023-04-22T10:31:28.518Z,36.15
2023-04-22T10:32:28.503Z,34.58
2023-04-22T10:33:28.636Z,34.11
2023-04-22T10:34:28.466Z,35.05
2023-04-22T10:35:28.467Z,35.94
2023-04-22T10:36:28.436Z,36.55
2023-04-22T10:37:28.428Z,35.96
2023-04-22T10:38:28.416Z,36.77
2023-04-22T10:39:28.427Z,36.21
2023-04-22T10:40:28.432Z,37.94
2023-04-22T10:41:28.385Z,37.34
2023-04-22T10:42:28.389Z,37.86
2023-04-22T10:43:28.361Z,38.06
2023-04-22T10:44:28.358Z,38.28
2023-04-22T10:45:28.370Z,38.76
2023-04-22T10:46:28.395Z,39.95
2023-04-22T10:47:28.364Z,39.56
2023-04-22T10:48:28.321Z,38.06
2023-04-22T10:49:28.316Z,38.98
2023-04-22T10:50:28.300Z,40.58
2023-04-22T10:51:28.276Z,37.77
2023-04-22T10:52:28.272Z,37.29
2023-04-22T10:53:28.263Z,37.49
2023-04-22T10:54:31.403Z,40.19
2023-04-22T10:55:28.250Z,38.51
2023-04-22T10:56:28.225Z,40.22
2023-04-22T10:57:28.257Z,39.20
2023-04-22T10:58:28.203Z,38.11
2023-04-22T10:59:28.224Z,41.02
2023-04-22T11:00:33.085Z,38.43
2023-04-22T11:01:29.219Z,38.13
2023-04-22T11:02:28.476Z,39.73
2023-04-22T11:03:28.778Z,38.03
2023-04-22T11:04:28.164Z,37.35
2023-04-22T11:05:28.154Z,39.75
2023-04-22T11:06:28.138Z,39.05
2023-04-22T11:07:28.103Z,39.13
2023-04-22T11:08:28.096Z,38.35
2023-04-22T11:09:28.094Z,38.85
2023-04-22T11:10:28.092Z,38.75
2023-04-22T11:11:28.060Z,40.15
2023-04-22T11:12:28.054Z,38.95
2023-04-22T11:13:28.043Z,40.25
2023-04-22T11:14:28.030Z,39.05
2023-04-22T11:15:28.043Z,40.25
2023-04-22T11:16:28.105Z,40.73
2023-04-22T11:17:28.041Z,39.33
2023-04-22T11:18:27.988Z,39.63
2023-04-22T11:19:27.975Z,39.33
2023-04-22T11:20:27.969Z,39.15
2023-04-22T11:21:27.988Z,39.65
2023-04-22T11:22:27.958Z,39.43
2023-04-22T11:23:27.956Z,40.53
2023-04-22T11:24:27.923Z,39.13
2023-04-22T11:25:27.932Z,38.53
2023-04-22T11:26:27.901Z,39.23
2023-04-22T11:27:27.902Z,39.15
2023-04-22T11:28:27.886Z,39.15
2023-04-22T11:29:27.871Z,39.33
2023-04-22T11:30:27.883Z,38.15
2023-04-22T11:31:27.876Z,39.33
2023-04-22T11:32:27.878Z,40.83
2023-04-22T11:33:27.828Z,39.65
2023-04-22T11:34:27.818Z,38.05
2023-04-22T11:35:27.830Z,38.15
2023-04-22T11:36:27.821Z,38.05
2023-04-22T11:37:27.805Z,38.55
2023-04-22T11:38:27.779Z,38.15
2023-04-22T11:39:27.774Z,38.75
2023-04-22T11:40:30.608Z,38.25
2023-04-22T11:41:27.768Z,39.65
2023-04-22T11:42:27.736Z,39.23
2023-04-22T11:43:27.730Z,38.43
2023-04-22T11:44:27.720Z,37.93
2023-04-22T11:45:27.907Z,38.45
2023-04-22T11:46:27.768Z,39.35
2023-04-22T11:47:27.700Z,39.13
2023-04-22T11:48:27.719Z,37.63
2023-04-22T11:49:27.681Z,37.43
2023-04-22T11:50:27.665Z,37.93
2023-04-22T11:51:27.643Z,37.93
2023-04-22T11:52:27.632Z,37.83
2023-04-22T11:53:27.636Z,37.93
2023-04-22T11:54:27.625Z,37.73
2023-04-22T11:55:27.599Z,37.53
2023-04-22T11:56:27.588Z,37.23
2023-04-22T11:57:27.588Z,36.53
2023-04-22T11:58:27.565Z,36.53
2023-04-22T11:59:27.576Z,36.43
2023-04-22T12:00:27.545Z,37.23
2023-04-22T12:01:27.549Z,36.01
2023-04-22T12:02:27.776Z,36.63
2023-04-22T12:03:27.769Z,35.71
2023-04-22T12:04:27.520Z,36.03
2023-04-22T12:05:27.523Z,36.23
2023-04-22T12:06:27.481Z,37.31
2023-04-22T12:07:27.470Z,37.41
2023-04-22T12:08:27.461Z,37.41
2023-04-22T12:09:27.483Z,38.11
2023-04-22T12:10:27.462Z,38.31
2023-04-22T12:11:27.425Z,38.51
2023-04-22T12:12:27.418Z,39.23
2023-04-22T12:13:27.503Z,37.63
2023-04-22T12:14:27.396Z,37.93
2023-04-22T12:15:27.460Z,38.43
2023-04-22T12:16:27.407Z,37.33
2023-04-22T12:17:27.409Z,36.81
2023-04-22T12:18:27.384Z,36.41
2023-04-22T12:19:27.342Z,37.10
2023-04-22T12:20:27.351Z,35.61
2023-04-22T12:21:27.320Z,36.69
2023-04-22T12:22:27.330Z,35.60
2023-04-22T12:23:27.300Z,36.49
2023-04-22T12:24:27.325Z,36.51
2023-04-22T12:25:27.302Z,37.71
2023-04-22T12:26:27.707Z,36.33
2023-04-22T12:27:27.258Z,36.21
2023-04-22T12:28:27.249Z,36.33
2023-04-22T12:29:27.237Z,37.51
2023-04-22T12:30:27.239Z,36.61
2023-04-22T12:31:27.236Z,36.93
2023-04-22T12:32:27.205Z,36.41
2023-04-22T12:33:27.208Z,36.21
2023-04-22T12:34:27.191Z,36.51
2023-04-22T12:35:27.199Z,35.61
2023-04-22T12:36:27.171Z,36.71
2023-04-22T12:37:27.160Z,37.21
2023-04-22T12:38:27.187Z,36.69
2023-04-22T12:39:27.142Z,35.60
2023-04-22T12:40:27.136Z,35.80
2023-04-22T12:41:27.176Z,36.49
2023-04-22T12:42:27.109Z,34.00
2023-04-22T12:43:27.122Z,34.30
2023-04-22T12:44:27.103Z,33.59
2023-04-22T12:45:27.123Z,34.31
2023-04-22T12:46:27.104Z,35.31
2023-04-22T12:47:27.071Z,34.81
2023-04-22T12:48:27.045Z,34.39
2023-04-22T12:49:27.031Z,34.00
2023-04-22T12:50:27.031Z,34.80
2023-04-22T12:51:27.015Z,34.61
2023-04-22T12:52:27.002Z,34.89